createdAt,value
2023-05-19T00:01:59.503Z,7.36
2023-05-19T00:04:27.811Z,7.37
2023-05-19T00:06:56.420Z,7.37
2023-05-19T00:09:24.257Z,7.37
2023-05-19T00:11:52.158Z,7.36
2023-05-19T00:14:20.211Z,7.36
2023-05-19T00:16:48.032Z,7.37
2023-05-19T00:19:15.657Z,7.37
2023-05-19T00:21:43.327Z,7.37
2023-05-19T00:24:11.082Z,7.37
2023-05-19T00:26:38.845Z,7.37
2023-05-19T00:29:06.474Z,7.36
2023-05-19T00:31:34.428Z,7.35
2023-05-19T00:34:02.321Z,7.34
2023-05-19T00:36:29.974Z,7.33
2023-05-19T00:38:57.589Z,7.32
2023-05-19T00:41:25.261Z,7.33
2023-05-19T00:43:52.986Z,7.33
2023-05-19T00:46:20.648Z,7.33
2023-05-19T00:48:48.356Z,7.33
2023-05-19T00:51:17.258Z,7.33
2023-05-19T00:53:46.535Z,7.34
2023-05-19T00:56:14.695Z,7.33
2023-05-19T00:58:42.450Z,7.33
2023-05-19T01:01:10.103Z,7.33
2023-05-19T01:03:38.915Z,7.33
2023-05-19T01:06:06.738Z,7.33
2023-05-19T01:08:37.651Z,7.34
2023-05-19T01:11:06.529Z,7.37
2023-05-19T01:13:36.323Z,7.38
2023-05-19T01:16:31.507Z,7.39
2023-05-19T01:19:05.164Z,7.40
2023-05-19T01:22:06.488Z,7.39
2023-05-19T01:24:49.054Z,7.40
2023-05-19T01:27:38.357Z,7.41
2023-05-19T01:30:42.153Z,7.41
2023-05-19T01:33:12.761Z,7.41
2023-05-19T01:35:42.327Z,7.41
2023-05-19T01:38:11.804Z,7.40
2023-05-19T01:40:41.335Z,7.40
2023-05-19T01:43:12.737Z,7.39
2023-05-19T01:45:41.049Z,7.40
2023-05-19T01:48:11.007Z,7.40
2023-05-19T01:50:42.663Z,7.39
2023-05-19T01:53:10.502Z,7.38
2023-05-19T01:55:50.058Z,7.39
2023-05-19T01:58:21.120Z,7.39
2023-05-19T02:01:03.388Z,7.39
2023-05-19T02:03:48.179Z,7.41
2023-05-19T02:06:46.267Z,7.41
2023-05-19T02:09:22.316Z,7.42
2023-05-19T02:11:56.355Z,7.42
2023-05-19T02:14:35.465Z,7.41
2023-05-19T02:17:04.901Z,7.42
2023-05-19T02:19:36.953Z,7.41
2023-05-19T02:22:04.926Z,7.41
2023-05-19T02:24:32.673Z,7.41
2023-05-19T02:27:00.338Z,7.41
2023-05-19T02:29:29.228Z,7.42
2023-05-19T02:31:56.873Z,7.42
2023-05-19T02:34:24.452Z,7.40
2023-05-19T02:36:52.034Z,7.38
2023-05-19T02:39:19.614Z,7.36
2023-05-19T02:41:47.223Z,7.36
2023-05-19T02:44:14.831Z,7.34
2023-05-19T02:46:42.553Z,7.32
2023-05-19T02:49:10.289Z,7.29
2023-05-19T02:51:37.972Z,7.25
2023-05-19T02:54:05.720Z,7.21
2023-05-19T02:56:33.340Z,7.17
2023-05-19T02:59:00.922Z,7.13
2023-05-19T03:01:28.762Z,7.10
2023-05-19T03:03:56.488Z,7.09
2023-05-19T03:06:24.288Z,7.08
2023-05-19T03:08:51.916Z,7.07
2023-05-19T03:11:19.500Z,7.07
2023-05-19T03:13:47.110Z,7.07
2023-05-19T03:16:14.803Z,7.08
2023-05-19T03:18:43.240Z,7.09
2023-05-19T03:21:10.840Z,7.10
2023-05-19T03:23:38.407Z,7.12
2023-05-19T03:26:05.981Z,7.15
2023-05-19T03:28:33.605Z,7.17
2023-05-19T03:31:01.225Z,7.20
2023-05-19T03:33:29.045Z,7.23
2023-05-19T03:35:57.381Z,7.28
2023-05-19T03:38:25.055Z,7.33
2023-05-19T03:40:52.666Z,7.38
2023-05-19T03:43:20.279Z,7.44
2023-05-19T03:45:48.132Z,7.50
2023-05-19T03:48:15.745Z,7.58
2023-05-19T03:50:43.351Z,7.64
2023-05-19T03:53:10.925Z,7.72
2023-05-19T03:55:39.065Z,7.80
2023-05-19T03:58:06.704Z,7.88
2023-05-19T04:00:34.467Z,7.96
2023-05-19T04:03:05.199Z,8.03
2023-05-19T04:05:32.937Z,8.12
2023-05-19T04:08:00.553Z,8.20
2023-05-19T04:10:28.487Z,8.28
2023-05-19T04:12:56.144Z,8.37
2023-05-19T04:15:23.833Z,8.47
2023-05-19T04:17:51.679Z,8.57
2023-05-19T04:20:19.422Z,8.67
2023-05-19T04:22:47.071Z,8.77
2023-05-19T04:25:14.811Z,8.88
2023-05-19T04:27:42.566Z,8.98
2023-05-19T04:30:10.754Z,9.07
2023-05-19T04:32:38.391Z,9.17
2023-05-19T04:35:06.212Z,9.27
2023-05-19T04:37:33.852Z,9.34
2023-05-19T04:40:01.586Z,9.41
2023-05-19T04:42:29.173Z,9.49
2023-05-19T04:44:56.748Z,9.56
2023-05-19T04:47:24.432Z,9.62
2023-05-19T04:49:52.069Z,9.66
2023-05-19T04:52:19.733Z,9.74
2023-05-19T04:54:47.486Z,9.80
2023-05-19T04:57:15.104Z,9.88
2023-05-19T04:59:42.783Z,9.95
2023-05-19T05:02:10.583Z,10.01
2023-05-19T05:04:38.374Z,10.06
2023-05-19T05:07:06.227Z,10.13
2023-05-19T05:09:33.986Z,10.18
2023-05-19T05:12:02.637Z,10.25
2023-05-19T05:14:30.553Z,10.35
2023-05-19T05:16:58.508Z,10.49
2023-05-19T05:19:26.509Z,10.61
2023-05-19T05:21:54.481Z,10.71
2023-05-19T05:24:22.677Z,10.77
2023-05-19T05:26:50.826Z,10.80
2023-05-19T05:29:19.909Z,10.84
2023-05-19T05:31:47.514Z,10.87
2023-05-19T05:34:15.273Z,10.91
2023-05-19T05:36:42.904Z,10.92
2023-05-19T05:39:10.476Z,10.95
2023-05-19T05:41:38.100Z,10.97
2023-05-19T05:44:05.793Z,11.03
2023-05-19T05:46:33.431Z,11.13
2023-05-19T05:49:01.695Z,11.21
2023-05-19T05:51:29.600Z,11.27
2023-05-19T05:53:57.795Z,11.31
2023-05-19T05:56:25.772Z,11.35
2023-05-19T05:58:53.581Z,11.39
2023-05-19T06:01:21.170Z,11.45
2023-05-19T06:03:48.858Z,11.49
2023-05-19T06:06:16.586Z,11.53
2023-05-19T06:08:44.189Z,11.59
2023-05-19T06:11:11.816Z,11.62
2023-05-19T06:13:39.907Z,11.66
2023-05-19T06:16:08.150Z,11.68
2023-05-19T06:18:35.923Z,11.71
2023-05-19T06:21:03.686Z,11.75
2023-05-19T06:23:31.293Z,11.77
2023-05-19T06:25:58.907Z,11.80
2023-05-19T06:28:26.640Z,11.85
2023-05-19T06:30:54.259Z,11.91
2023-05-19T06:33:21.816Z,11.99
2023-05-19T06:35:49.430Z,12.12
2023-05-19T06:38:17.846Z,12.23
2023-05-19T06:40:45.440Z,12.31
2023-05-19T06:43:13.010Z,12.37
2023-05-19T06:45:40.628Z,12.39
2023-05-19T06:48:08.273Z,12.43
2023-05-19T06:50:35.943Z,12.51
2023-05-19T06:53:03.634Z,12.61
2023-05-19T06:55:31.400Z,12.73
2023-05-19T06:57:59.013Z,12.79
2023-05-19T07:00:26.779Z,12.80
2023-05-19T07:02:54.413Z,12.73
2023-05-19T07:05:22.382Z,12.80
2023-05-19T07:07:49.979Z,12.87
2023-05-19T07:10:17.604Z,12.92
2023-05-19T07:12:45.183Z,12.98
2023-05-19T07:15:12.837Z,12.95
2023-05-19T07:17:40.570Z,12.86
2023-05-19T07:20:09.025Z,12.77
2023-05-19T07:22:37.341Z,12.72
2023-05-19T07:25:05.735Z,12.74
2023-05-19T07:27:33.558Z,12.80
2023-05-19T07:30:04.114Z,12.83
2023-05-19T07:32:31.716Z,12.80
2023-05-19T07:34:59.342Z,12.89
2023-05-19T07:37:27.206Z,13.04
2023-05-19T07:39:54.846Z,13.12
2023-05-19T07:42:22.491Z,13.29
2023-05-19T07:44:50.101Z,13.51
2023-05-19T07:47:17.756Z,13.62
2023-05-19T07:49:45.374Z,13.75
2023-05-19T07:52:13.118Z,13.93
2023-05-19T07:54:40.695Z,14.01
2023-05-19T07:57:08.410Z,14.02
2023-05-19T07:59:36.076Z,14.05
2023-05-19T08:02:03.885Z,14.04
2023-05-19T08:04:31.886Z,14.08
2023-05-19T08:06:59.568Z,14.21
2023-05-19T08:09:27.331Z,14.29
2023-05-19T08:11:55.024Z,14.26
2023-05-19T08:14:22.641Z,14.23
2023-05-19T08:16:50.332Z,14.18
2023-05-19T08:19:18.077Z,14.19
2023-05-19T08:21:45.732Z,14.17
2023-05-19T08:24:13.362Z,14.17
2023-05-19T08:26:40.982Z,14.10
2023-05-19T08:29:08.564Z,13.96
2023-05-19T08:31:36.210Z,13.90
2023-05-19T08:34:03.832Z,13.87
2023-05-19T08:36:31.450Z,13.88
2023-05-19T08:38:59.121Z,14.00
2023-05-19T08:41:26.689Z,14.20
2023-05-19T08:43:54.608Z,14.31
2023-05-19T08:46:25.307Z,14.37
2023-05-19T08:49:09.363Z,14.53
2023-05-19T08:51:42.930Z,14.69
2023-05-19T08:54:17.555Z,14.95
2023-05-19T08:56:45.445Z,15.24
2023-05-19T08:59:17.174Z,15.59
2023-05-19T09:01:46.230Z,15.90
2023-05-19T09:04:15.594Z,16.04
2023-05-19T09:06:43.347Z,16.04
2023-05-19T09:09:11.614Z,16.09
2023-05-19T09:11:39.238Z,16.17
2023-05-19T09:14:06.883Z,16.26
2023-05-19T09:16:34.839Z,16.35
2023-05-19T09:19:02.605Z,16.37
2023-05-19T09:21:31.416Z,16.34
2023-05-19T09:24:05.124Z,16.28
2023-05-19T09:26:40.905Z,16.26
2023-05-19T09:29:11.868Z,16.25
2023-05-19T09:31:39.643Z,16.12
2023-05-19T09:34:12.795Z,15.94
2023-05-19T09:36:41.068Z,15.72
2023-05-19T09:39:18.822Z,15.55
2023-05-19T09:41:47.295Z,15.35
2023-05-19T09:44:20.618Z,15.22
2023-05-19T09:46:51.944Z,15.21
2023-05-19T09:49:24.023Z,15.25
2023-05-19T09:51:51.602Z,15.25
2023-05-19T09:54:21.415Z,15.33
2023-05-19T09:56:59.390Z,15.56
2023-05-19T09:59:30.543Z,15.79
2023-05-19T10:02:00.802Z,15.94
2023-05-19T10:04:30.814Z,16.16
2023-05-19T10:06:59.333Z,16.42
2023-05-19T10:09:29.127Z,16.47
2023-05-19T10:11:59.129Z,16.53
2023-05-19T10:14:28.912Z,16.62
2023-05-19T10:16:58.306Z,16.59
2023-05-19T10:19:27.919Z,16.62
2023-05-19T10:21:56.080Z,16.82
2023-05-19T10:24:24.030Z,17.05
2023-05-19T10:27:06.224Z,17.30
2023-05-19T10:29:37.754Z,17.46
2023-05-19T10:32:14.761Z,17.56
2023-05-19T10:35:20.159Z,17.50
2023-05-19T10:37:58.721Z,17.49
2023-05-19T10:40:33.598Z,17.41
2023-05-19T10:43:19.917Z,17.35
2023-05-19T10:45:58.582Z,17.19
2023-05-19T10:48:33.621Z,17.10
2023-05-19T10:51:01.690Z,17.00
2023-05-19T10:53:33.174Z,16.84
2023-05-19T10:56:04.361Z,16.76
2023-05-19T10:58:48.767Z,16.78
2023-05-19T11:01:18.029Z,16.84
2023-05-19T11:03:49.546Z,16.91
2023-05-19T11:06:28.129Z,17.16
2023-05-19T11:09:00.411Z,17.36
2023-05-19T11:11:46.615Z,17.47
2023-05-19T11:14:18.413Z,17.82
2023-05-19T11:16:50.671Z,18.28
2023-05-19T11:19:28.811Z,18.65
2023-05-19T11:21:57.831Z,18.92
2023-05-19T11:24:34.296Z,19.02
2023-05-19T11:27:20.561Z,19.13
2023-05-19T11:29:49.216Z,19.36
2023-05-19T11:32:17.895Z,19.61
2023-05-19T11:34:45.530Z,19.59
2023-05-19T11:37:13.139Z,19.41
2023-05-19T11:39:41.040Z,19.28
2023-05-19T11:42:09.057Z,19.36
2023-05-19T11:44:36.774Z,19.48
2023-05-19T11:47:05.577Z,19.53
2023-05-19T11:49:33.518Z,19.40
2023-05-19T11:52:01.276Z,19.40
2023-05-19T11:54:33.590Z,19.49
2023-05-19T11:57:05.093Z,19.50
2023-05-19T11:59:35.580Z,19.56
2023-05-19T12:02:14.840Z,19.60
2023-05-19T12:04:43.036Z,19.60
2023-05-19T12:07:11.656Z,19.62
2023-05-19T12:09:39.964Z,19.63
2023-05-19T12:12:07.824Z,19.65
2023-05-19T12:14:35.743Z,19.55
2023-05-19T12:17:17.505Z,19.36
2023-05-19T12:19:46.571Z,19.15
2023-05-19T12:22:16.232Z,19.05
2023-05-19T12:24:45.031Z,19.05
2023-05-19T12:27:12.595Z,19.05
2023-05-19T12:29:40.887Z,19.09
2023-05-19T12:32:09.386Z,19.13
2023-05-19T12:34:38.474Z,19.19
2023-05-19T12:37:06.129Z,19.18
2023-05-19T12:39:33.877Z,19.17
2023-05-19T12:42:07.967Z,19.12
2023-05-19T12:44:49.285Z,19.09
2023-05-19T12:47:18.301Z,19.07
2023-05-19T12:50:07.144Z,18.91
2023-05-19T12:52:42.738Z,18.75
2023-05-19T12:55:10.936Z,18.66
2023-05-19T12:57:43.154Z,18.64
2023-05-19T13:00:16.670Z,18.57
2023-05-19T13:03:04.704Z,18.40
2023-05-19T13:05:38.289Z,18.24
2023-05-19T13:08:12.658Z,18.09
2023-05-19T13:10:42.359Z,17.95
2023-05-19T13:13:10.683Z,17.86
2023-05-19T13:15:41.568Z,17.82
2023-05-19T13:18:10.463Z,17.81
2023-05-19T13:20:39.449Z,17.87
2023-05-19T13:23:07.438Z,17.91
2023-05-19T13:25:35.356Z,17.89
2023-05-19T13:28:04.001Z,17.84
2023-05-19T13:30:33.029Z,17.72
2023-05-19T13:33:00.911Z,17.69
2023-05-19T13:35:28.743Z,17.78
2023-05-19T13:37:56.383Z,17.84
2023-05-19T13:40:24.093Z,17.89
2023-05-19T13:42:51.792Z,17.88
2023-05-19T13:45:19.532Z,17.87
2023-05-19T13:47:47.265Z,17.85
2023-05-19T13:50:14.940Z,17.76
2023-05-19T13:52:42.710Z,17.64
2023-05-19T13:55:10.330Z,17.58
2023-05-19T13:57:37.972Z,17.50
2023-05-19T14:00:06.563Z,17.41
2023-05-19T14:02:34.387Z,17.30
2023-05-19T14:05:02.145Z,17.20
2023-05-19T14:07:30.008Z,17.06
2023-05-19T14:09:57.648Z,16.94
2023-05-19T14:12:35.387Z,16.87
2023-05-19T14:15:09.090Z,16.75
2023-05-19T14:17:37.456Z,16.65
2023-05-19T14:20:05.989Z,16.62
2023-05-19T14:22:33.627Z,16.56
2023-05-19T14:25:02.089Z,16.52
2023-05-19T14:27:29.735Z,16.51
2023-05-19T14:29:57.491Z,16.54
2023-05-19T14:32:26.290Z,16.58
2023-05-19T14:34:54.935Z,16.63
2023-05-19T14:37:22.568Z,16.68
2023-05-19T14:39:50.186Z,16.70
2023-05-19T14:42:17.777Z,16.69
2023-05-19T14:44:45.436Z,16.69
2023-05-19T14:47:13.256Z,16.66
2023-05-19T14:49:41.047Z,16.57
2023-05-19T14:52:08.615Z,16.38
2023-05-19T14:54:36.240Z,16.16
2023-05-19T14:57:04.084Z,16.07
2023-05-19T14:59:31.679Z,16.03
2023-05-19T15:01:59.337Z,15.96
2023-05-19T15:04:27.316Z,15.90
2023-05-19T15:07:05.670Z,15.84
2023-05-19T15:09:37.882Z,15.81
2023-05-19T15:12:05.959Z,15.78
2023-05-19T15:14:33.622Z,15.70
2023-05-19T15:17:04.385Z,15.61
2023-05-19T15:19:34.261Z,15.53
2023-05-19T15:22:02.224Z,15.42
2023-05-19T15:24:29.901Z,15.32
2023-05-19T15:26:57.561Z,15.24
2023-05-19T15:29:28.118Z,15.11
2023-05-19T15:31:55.754Z,15.05
2023-05-19T15:34:23.405Z,15.00
2023-05-19T15:36:51.101Z,14.95
2023-05-19T15:39:18.752Z,14.87
2023-05-19T15:41:46.412Z,14.82
2023-05-19T15:44:14.044Z,14.79
2023-05-19T15:46:41.708Z,14.74
2023-05-19T15:49:09.497Z,14.70
2023-05-19T15:51:40.534Z,14.63
2023-05-19T15:54:08.128Z,14.54
2023-05-19T15:56:35.784Z,14.46
2023-05-19T15:59:03.469Z,14.33
2023-05-19T16:01:34.113Z,14.26
2023-05-19T16:04:01.962Z,14.26
2023-05-19T16:06:30.330Z,14.25
2023-05-19T16:08:57.993Z,14.24
2023-05-19T16:11:25.601Z,14.21
2023-05-19T16:13:53.209Z,14.18
2023-05-19T16:16:20.873Z,14.16
2023-05-19T16:18:48.592Z,14.12
2023-05-19T16:21:16.338Z,14.10
2023-05-19T16:23:44.142Z,14.06
2023-05-19T16:26:11.841Z,14.02
2023-05-19T16:28:39.449Z,13.95
2023-05-19T16:31:09.074Z,13.87
2023-05-19T16:33:36.672Z,13.75
2023-05-19T16:36:04.564Z,13.61
2023-05-19T16:38:32.236Z,13.45
2023-05-19T16:40:59.842Z,13.34
2023-05-19T16:43:27.580Z,13.26
2023-05-19T16:45:55.246Z,13.19
2023-05-19T16:48:22.877Z,13.10
2023-05-19T16:50:50.462Z,13.00
2023-05-19T16:53:18.063Z,12.88
2023-05-19T16:55:45.652Z,12.81
2023-05-19T16:58:13.282Z,12.73
2023-05-19T17:00:40.873Z,12.65
2023-05-19T17:03:08.556Z,12.63
2023-05-19T17:05:36.265Z,12.62
2023-05-19T17:08:04.029Z,12.60
2023-05-19T17:10:31.813Z,12.58
2023-05-19T17:12:59.553Z,12.57
2023-05-19T17:15:27.325Z,12.55
2023-05-19T17:17:54.968Z,12.51
2023-05-19T17:20:22.595Z,12.45
2023-05-19T17:22:50.168Z,12.39
2023-05-19T17:25:17.767Z,12.32
2023-05-19T17:27:45.385Z,12.26
2023-05-19T17:30:13.825Z,12.21
2023-05-19T17:32:41.467Z,12.16
2023-05-19T17:35:09.293Z,12.12
2023-05-19T17:37:36.960Z,12.06
2023-05-19T17:40:05.212Z,12.01
2023-05-19T17:42:32.850Z,11.97
2023-05-19T17:45:00.463Z,11.94
2023-05-19T17:47:28.264Z,11.92
2023-05-19T17:49:55.866Z,11.89
2023-05-19T17:52:23.807Z,11.85
2023-05-19T17:54:51.719Z,11.80
2023-05-19T17:57:24.604Z,11.74
2023-05-19T17:59:53.668Z,11.71
2023-05-19T18:02:21.486Z,11.70
2023-05-19T18:04:49.514Z,11.68
2023-05-19T18:07:17.975Z,11.68
2023-05-19T18:09:46.075Z,11.65
2023-05-19T18:12:14.075Z,11.62
2023-05-19T18:14:41.871Z,11.57
2023-05-19T18:17:09.569Z,11.53
2023-05-19T18:19:37.255Z,11.50
2023-05-19T18:22:05.322Z,11.48
2023-05-19T18:24:33.019Z,11.45
2023-05-19T18:27:00.706Z,11.44
2023-05-19T18:29:28.552Z,11.41
2023-05-19T18:31:56.264Z,11.38
2023-05-19T18:34:23.909Z,11.35
2023-05-19T18:36:51.634Z,11.32
2023-05-19T18:39:19.302Z,11.29
2023-05-19T18:41:47.048Z,11.27
2023-05-19T18:44:15.943Z,11.25
2023-05-19T18:46:43.560Z,11.24
2023-05-19T18:49:11.835Z,11.22
2023-05-19T18:51:39.746Z,11.21
2023-05-19T18:54:07.571Z,11.20
2023-05-19T18:56:35.207Z,11.18
2023-05-19T18:59:02.886Z,11.15
2023-05-19T19:01:30.548Z,11.13
2023-05-19T19:03:58.257Z,11.11
2023-05-19T19:06:25.946Z,11.09
2023-05-19T19:08:53.732Z,11.07
2023-05-19T19:11:23.492Z,11.05
2023-05-19T19:13:51.452Z,11.02
2023-05-19T19:16:19.277Z,11.00
2023-05-19T19:18:50.012Z,10.98
2023-05-19T19:21:17.878Z,10.96
2023-05-19T19:23:45.853Z,10.96
2023-05-19T19:26:14.006Z,10.96
2023-05-19T19:28:41.920Z,10.97
2023-05-19T19:31:12.168Z,10.97
2023-05-19T19:33:39.801Z,10.96
2023-05-19T19:36:07.539Z,10.96
2023-05-19T19:38:35.369Z,10.96
2023-05-19T19:41:03.421Z,10.96
2023-05-19T19:43:31.114Z,10.96
2023-05-19T19:46:02.783Z,10.96
2023-05-19T19:48:30.418Z,10.96
2023-05-19T19:50:58.145Z,10.95
2023-05-19T19:53:25.858Z,10.93
2023-05-19T19:56:00.543Z,10.92
2023-05-19T19:58:28.854Z,10.89
2023-05-19T20:01:02.019Z,10.87
2023-05-19T20:03:31.850Z,10.86
2023-05-19T20:05:59.508Z,10.85
2023-05-19T20:08:27.563Z,10.82
2023-05-19T20:10:57.024Z,10.79
2023-05-19T20:13:24.808Z,10.76
2023-05-19T20:15:52.822Z,10.75
2023-05-19T20:18:20.541Z,10.75
2023-05-19T20:20:48.203Z,10.75
2023-05-19T20:23:15.812Z,10.75
2023-05-19T20:25:58.445Z,10.75
2023-05-19T20:28:30.639Z,10.75
2023-05-19T20:30:58.262Z,10.74
2023-05-19T20:33:25.869Z,10.73
2023-05-19T20:35:53.456Z,10.73
2023-05-19T20:38:21.032Z,10.72
2023-05-19T20:40:48.651Z,10.73
2023-05-19T20:43:16.455Z,10.72
2023-05-19T20:45:44.486Z,10.73
2023-05-19T20:48:12.234Z,10.71
2023-05-19T20:50:39.986Z,10.70
2023-05-19T20:53:07.640Z,10.70
2023-05-19T20:55:38.640Z,10.69
2023-05-19T20:58:06.360Z,10.68
2023-05-19T21:00:34.123Z,10.68
2023-05-19T21:03:02.268Z,10.67
2023-05-19T21:05:30.123Z,10.66
2023-05-19T21:07:57.822Z,10.65
2023-05-19T21:10:25.442Z,10.63
2023-05-19T21:12:53.062Z,10.61
2023-05-19T21:15:20.668Z,10.60
2023-05-19T21:17:48.384Z,10.61
2023-05-19T21:20:16.030Z,10.61
2023-05-19T21:22:43.649Z,10.61
2023-05-19T21:25:11.369Z,10.60
2023-05-19T21:27:38.962Z,10.59
2023-05-19T21:30:07.196Z,10.59
2023-05-19T21:32:34.978Z,10.58
2023-05-19T21:35:02.887Z,10.58
2023-05-19T21:37:30.480Z,10.55
2023-05-19T21:39:58.095Z,10.53
2023-05-19T21:42:25.768Z,10.52
2023-05-19T21:44:56.153Z,10.52
2023-05-19T21:47:23.746Z,10.51
2023-05-19T21:49:51.349Z,10.50
2023-05-19T21:52:18.961Z,10.49
2023-05-19T21:54:46.740Z,10.49
2023-05-19T21:57:14.342Z,10.48
2023-05-19T21:59:41.932Z,10.47
2023-05-19T22:02:09.630Z,10.47
2023-05-19T22:04:37.374Z,10.46
2023-05-19T22:07:06.232Z,10.45
2023-05-19T22:09:33.848Z,10.44
2023-05-19T22:12:01.605Z,10.42
2023-05-19T22:14:29.186Z,10.40
2023-05-19T22:16:56.885Z,10.41
2023-05-19T22:19:24.740Z,10.39
2023-05-19T22:22:01.966Z,10.38
2023-05-19T22:24:37.946Z,10.37
2023-05-19T22:27:08.323Z,10.33
2023-05-19T22:29:36.803Z,10.31
2023-05-19T22:32:08.420Z,10.31
2023-05-19T22:34:36.024Z,10.32
2023-05-19T22:37:03.753Z,10.32
2023-05-19T22:39:31.539Z,10.30
2023-05-19T22:41:59.118Z,10.29
2023-05-19T22:44:27.100Z,10.30
2023-05-19T22:46:54.831Z,10.29
2023-05-19T22:49:22.513Z,10.27
2023-05-19T22:51:50.264Z,10.24
2023-05-19T22:54:18.037Z,10.22
2023-05-19T22:56:46.484Z,10.22
2023-05-19T22:59:14.956Z,10.22
2023-05-19T23:01:42.552Z,10.22
2023-05-19T23:04:12.473Z,10.22
2023-05-19T23:06:40.208Z,10.22
2023-05-19T23:09:07.806Z,10.22
2023-05-19T23:11:35.429Z,10.22
2023-05-19T23:14:03.219Z,10.24
2023-05-19T23:16:32.111Z,10.25
2023-05-19T23:18:59.891Z,10.26
2023-05-19T23:21:27.648Z,10.25
2023-05-19T23:23:55.265Z,10.25
2023-05-19T23:26:23.202Z,10.25
2023-05-19T23:28:50.809Z,10.25
2023-05-19T23:31:18.546Z,10.26
2023-05-19T23:33:46.199Z,10.24
2023-05-19T23:36:14.148Z,10.22
2023-05-19T23:38:41.797Z,10.21
2023-05-19T23:41:09.469Z,10.22
2023-05-19T23:43:37.075Z,10.23
2023-05-19T23:46:04.916Z,10.25
2023-05-19T23:48:32.491Z,10.24
2023-05-19T23:51:02.190Z,10.21
2023-05-19T23:53:29.741Z,10.20
2023-05-19T23:56:00.542Z,10.20
2023-05-19T23:58:28.311Z,10.20
